Time;durP1;ratioP1;P1;durP2;ratioP2;P2;SDS_P1;SDS_P2;PMS_P1;PMS_P2;Temp;Humidity;BMP_temperature;BMP_pressure;BME280_temperature;BME280_humidity;BME280_pressure;Samples;Min_cycle;Max_cycle;Signal;HPM_P1;HPM_P2
2022/06/11 00:00:46;;;;;;;;;;;;;;;;;;6179973;23;19923;-89
2022/06/11 00:03:12;;;;;;;;;;;;;;;;;;6182664;23;19916;-90
2022/06/11 00:05:41;;;;;;;;;;;;;;;;;;6228957;23;19945;-90
2022/06/11 00:08:07;;;;;;;;;;;;;;;;;;6181859;23;20001;-91
2022/06/11 00:10:33;;;;;;;;;;;;;;;;;;6230221;23;19959;-90
2022/06/11 00:13:02;;;;;;;;;;;;;;;;;;6206489;23;19952;-91
2022/06/11 00:15:30;;;;;;;;;;;;;;;;;;6206016;23;19926;-89
2022/06/11 00:18:02;;;;;;;;;;;;;;;;;;6183089;23;20016;-89
2022/06/11 00:20:38;;;;;;;;;;;;;;;;;;;;;
2022/06/11 00:23:07;;;;;;;;;;;;;;;;;;6230496;23;19919;-91
2022/06/11 00:25:36;;;;;;;;;;;;;;;;;;6203577;23;19923;-90
2022/06/11 00:28:05;;;;;;;;;;;;;;;;;;6207937;23;19922;-91
2022/06/11 00:30:31;;;;;;;;;;;;;;;;;;6205962;23;19915;-91
2022/06/11 00:33:00;;;;;;;;;;;;;;;;;;6207551;23;19919;-90
2022/06/11 00:35:26;;;;;;;;;;;;;;;;;;6177494;23;20455;-90
2022/06/11 00:37:57;;;;;;;;;;;;;;;;;;6204150;23;19916;-92
2022/06/11 00:40:27;;;;;;;;;;;;;;;;;;6179450;23;19919;-93
2022/06/11 00:42:53;;;;;;;;;;;;;;;;;;6181107;23;19958;-92
2022/06/11 00:45:24;;;;;;;;;;;;;;;;;;6180930;23;19946;-89
2022/06/11 00:47:50;;;;;;;;;;;;;;;;;;6181806;23;20316;-89
2022/06/11 00:50:19;;;;;;;;;;;;;;;;;;6181589;23;19926;-89
2022/06/11 00:52:48;;;;;;;;;;;;;;;;;;6203953;23;19920;-89
2022/06/11 00:55:14;;;;;;;;;;;;;;;;;;6181494;23;19924;-89
2022/06/11 00:57:40;;;;;;;;;;;;;;;;;;6178092;23;19927;-90
2022/06/11 01:00:06;;;;;;;;;;;;;;;;;;6181611;23;19923;-89
2022/06/11 01:02:32;;;;;;;;;;;;;;;;;;6179929;23;19919;-90
2022/06/11 01:04:58;;;;;;;;;;;;;;;;;;6180398;23;20402;-90
2022/06/11 01:07:24;;;;;;;;;;;;;;;;;;6182375;23;19923;-90
2022/06/11 01:09:50;;;;;;;;;;;;;;;;;;6207219;23;19946;-89
2022/06/11 01:12:16;;;;;;;;;;;;;;;;;;6181503;23;19961;-90
2022/06/11 01:14:42;;;;;;;;;;;;;;;;;;6176517;23;19923;-89
2022/06/11 01:17:11;;;;;;;;;;;;;;;;;;6177449;23;19915;-90
2022/06/11 01:19:37;;;;;;;;;;;;;;;;;;6175929;23;20251;-90
2022/06/11 01:22:03;;;;;;;;;;;;;;;;;;6176510;23;19919;-90
2022/06/11 01:24:29;;;;;;;;;;;;;;;;;;6229349;23;19943;-89
2022/06/11 01:26:55;;;;;;;;;;;;;;;;;;6178950;23;19919;-89
2022/06/11 01:29:21;;;;;;;;;;;;;;;;;;6202394;23;19950;-90
2022/06/11 01:31:55;;;;;;;;;;;;;;;;;;6200983;23;20339;-90
2022/06/11 01:34:21;;;;;;;;;;;;;;;;;;6182881;23;20320;-90
2022/06/11 01:36:54;;;;;;;;;;;;;;;;;;6176818;23;19919;-90
2022/06/11 01:39:20;;;;;;;;;;;;;;;;;;6206240;23;19993;-89
2022/06/11 01:41:49;;;;;;;;;;;;;;;;;;6204218;23;19977;-90
2022/06/11 01:44:15;;;;;;;;;;;;;;;;;;6186475;23;19946;-89
2022/06/11 01:46:41;;;;;;;;;;;;;;;;;;6230455;23;20264;-92
2022/06/11 01:49:07;;;;;;;;;;;;;;;;;;6206469;23;19915;-89
2022/06/11 01:51:33;;;;;;;;;;;;;;;;;;6230737;23;19986;-90
2022/06/11 01:53:59;;;;;;;;;;;;;;;;;;6206664;23;19925;-90
2022/06/11 01:56:25;;;;;;;;;;;;;;;;;;6204537;23;20247;-90
2022/06/11 01:58:57;;;;;;;;;;;;;;;;;;6183811;23;20058;-90
2022/06/11 02:01:22;;;;;;;;;;;;;;;;;;6182754;23;20352;-90
2022/06/11 02:03:51;;;;;;;;;;;;;;;;;;6179859;23;19920;-90
2022/06/11 02:06:26;;;;;;;;;;;;;;;;;;6201957;23;19919;-90
2022/06/11 02:08:52;;;;;;;;;;;;;;;;;;6234598;23;19930;-89
2022/06/11 02:11:18;;;;;;;;;;;;;;;;;;6207726;23;19916;-90
2022/06/11 02:13:50;;;;;;;;;;;;;;;;;;6187947;23;22176;-90
2022/06/11 02:16:16;;;;;;;;;;;;;;;;;;6179653;23;20006;-90
2022/06/11 02:18:48;;;;;;;;;;;;;;;;;;6176987;23;19919;-90
2022/06/11 02:21:16;;;;;;;;;;;;;;;;;;6203977;23;20372;-90
2022/06/11 02:23:42;;;;;;;;;;;;;;;;;;6200793;23;19926;-90
2022/06/11 02:26:08;;;;;;;;;;;;;;;;;;6203864;23;19969;-90
2022/06/11 02:28:37;;;;;;;;;;;;;;;;;;6178813;23;20291;-90
2022/06/11 02:31:03;;;;;;;;;;;;;;;;;;6230329;23;19954;-90
2022/06/11 02:33:29;;;;;;;;;;;;;;;;;;6227078;23;19916;-90
2022/06/11 02:35:58;;;;;;;;;;;;;;;;;;6203788;23;19919;-90
2022/06/11 02:38:27;;;;;;;;;;;;;;;;;;6201261;23;19947;-90
2022/06/11 02:41:03;;;;;;;;;;;;;;;;;;;;;
2022/06/11 02:43:36;;;;;;;;;;;;;;;;;;6227248;23;19986;-90
2022/06/11 02:46:40;;;;;;;;;;;;;;;;;;6203776;23;20328;-91
2022/06/11 02:48:48;;;;;;;;;;;;;;;;;;6225768;23;19916;-90
2022/06/11 02:51:26;;;;;;;;;;;;;;;;;;6227400;23;19920;-91
2022/06/11 02:53:52;;;;;;;;;;;;;;;;;;6202828;23;19982;-91
2022/06/11 02:56:18;;;;;;;;;;;;;;;;;;6205626;23;20304;-91
2022/06/11 02:58:44;;;;;;;;;;;;;;;;;;6202521;23;20405;-91
2022/06/11 03:01:12;;;;;;;;;;;;;;;;;;6183613;23;19923;-91
2022/06/11 03:03:41;;;;;;;;;;;;;;;;;;6205002;23;19919;-91
2022/06/11 03:06:07;;;;;;;;;;;;;;;;;;6183629;23;19941;-90
2022/06/11 03:08:33;;;;;;;;;;;;;;;;;;6179645;23;20351;-90
2022/06/11 03:10:59;;;;;;;;;;;;;;;;;;6184842;23;19927;-90
2022/06/11 03:13:28;;;;;;;;;;;;;;;;;;6205325;23;19916;-90
2022/06/11 03:15:54;;;;;;;;;;;;;;;;;;6207586;23;20351;-90
2022/06/11 03:18:25;;;;;;;;;;;;;;;;;;6181464;23;19927;-91
2022/06/11 03:20:54;;;;;;;;;;;;;;;;;;6184895;23;20253;-91
2022/06/11 03:23:29;;;;;;;;;;;;;;;;;;6207725;23;20332;-91
2022/06/11 03:25:55;;;;;;;;;;;;;;;;;;6208157;23;19920;-91
2022/06/11 03:28:21;;;;;;;;;;;;;;;;;;6232949;23;19926;-90
2022/06/11 03:30:47;;;;;;;;;;;;;;;;;;6205686;23;19927;-90
2022/06/11 03:33:13;;;;;;;;;;;;;;;;;;6205612;23;20248;-89
2022/06/11 03:35:39;;;;;;;;;;;;;;;;;;6204255;23;19949;-90
2022/06/11 03:38:07;;;;;;;;;;;;;;;;;;6204051;23;19920;-90
2022/06/11 03:40:33;;;;;;;;;;;;;;;;;;6202908;23;19931;-90
2022/06/11 03:43:07;;;;;;;;;;;;;;;;;;6179522;23;19919;-92
2022/06/11 03:45:38;;;;;;;;;;;;;;;;;;6172898;23;19927;-91
2022/06/11 03:48:04;;;;;;;;;;;;;;;;;;6177275;23;19923;-91
2022/06/11 03:50:33;;;;;;;;;;;;;;;;;;6201232;23;19998;-91
2022/06/11 03:53:06;;;;;;;;;;;;;;;;;;6205323;23;19923;-90
2022/06/11 03:55:32;;;;;;;;;;;;;;;;;;6225597;23;20385;-91
2022/06/11 03:58:01;;;;;;;;;;;;;;;;;;6177715;23;19916;-90
2022/06/11 04:03:20;;;;;;;;;;;;;;;;;;6203350;23;19951;-92
2022/06/11 04:06:04;;;;;;;;;;;;;;;;;;6180267;23;19919;-91
2022/06/11 04:08:30;;;;;;;;;;;;;;;;;;6177510;23;19923;-91
2022/06/11 04:11:05;;;;;;;;;;;;;;;;;;6203797;23;19969;-91
2022/06/11 04:13:36;;;;;;;;;;;;;;;;;;6177577;23;20528;-90
2022/06/11 04:16:02;;;;;;;;;;;;;;;;;;6177831;23;19920;-91
2022/06/11 04:18:31;;;;;;;;;;;;;;;;;;6176696;23;20413;-92
2022/06/11 04:21:02;;;;;;;;;;;;;;;;;;6177467;23;19931;-91
2022/06/11 04:23:31;;;;;;;;;;;;;;;;;;6175857;23;19919;-91
2022/06/11 04:26:00;;;;;;;;;;;;;;;;;;6179069;23;19919;-91
2022/06/11 04:28:26;;;;;;;;;;;;;;;;;;6175794;23;20019;-91
2022/06/11 04:30:52;;;;;;;;;;;;;;;;;;6185857;23;19926;-91
2022/06/11 04:33:21;;;;;;;;;;;;;;;;;;6204893;23;19915;-90
2022/06/11 04:35:49;;;;;;;;;;;;;;;;;;6201784;23;19990;-92
2022/06/11 04:38:18;;;;;;;;;;;;;;;;;;6203869;23;19955;-91
2022/06/11 04:40:54;;;;;;;;;;;;;;;;;;;;;
2022/06/11 04:43:29;;;;;;;;;;;;;;;;;;6233111;22;20709;-92
2022/06/11 04:45:55;;;;;;;;;;;;;;;;;;6233085;22;20155;-91
2022/06/11 04:48:28;;;;;;;;;;;;;;;;;;6209210;22;19919;-91
2022/06/11 04:50:54;;;;;;;;;;;;;;;;;;6207824;22;19966;-91
2022/06/11 04:53:23;;;;;;;;;;;;;;;;;;6207858;22;19919;-92
2022/06/11 04:55:49;;;;;;;;;;;;;;;;;;6206836;23;19926;-93
2022/06/11 04:58:18;;;;;;;;;;;;;;;;;;6229470;23;19919;-91
2022/06/11 05:00:52;;;;;;;;;;;;;;;;;;6224081;23;20303;-91
2022/06/11 05:03:18;;;;;;;;;;;;;;;;;;6176606;23;19916;-91
2022/06/11 05:05:44;;;;;;;;;;;;;;;;;;6176825;23;20608;-91
2022/06/11 05:08:10;;;;;;;;;;;;;;;;;;6180674;23;20351;-92
2022/06/11 05:10:44;;;;;;;;;;;;;;;;;;6229052;23;19962;-91
2022/06/11 05:13:10;;;;;;;;;;;;;;;;;;6205355;23;19951;-91
2022/06/11 05:15:36;;;;;;;;;;;;;;;;;;6179646;23;19923;-90
2022/06/11 05:18:08;;;;;;;;;;;;;;;;;;6182029;23;20022;-90
2022/06/11 05:20:34;;;;;;;;;;;;;;;;;;6179095;23;20324;-91
2022/06/11 05:23:00;;;;;;;;;;;;;;;;;;6180998;23;19915;-92
2022/06/11 05:25:26;;;;;;;;;;;;;;;;;;6178804;23;20450;-91
2022/06/11 05:27:54;;;;;;;;;;;;;;;;;;6209724;22;19919;-91
2022/06/11 05:30:20;;;;;;;;;;;;;;;;;;6209472;22;19926;-92
2022/06/11 05:32:47;;;;;;;;;;;;;;;;;;6207161;22;20407;-91
2022/06/11 05:35:13;;;;;;;;;;;;;;;;;;6208749;22;19969;-90
2022/06/11 05:37:39;;;;;;;;;;;;;;;;;;6207417;22;19998;-91
2022/06/11 05:40:08;;;;;;;;;;;;;;;;;;6205725;23;20003;-90
2022/06/11 05:42:34;;;;;;;;;;;;;;;;;;6201758;23;20247;-92
2022/06/11 05:45:00;;;;;;;;;;;;;;;;;;6205046;23;20049;-91
2022/06/11 05:47:26;;;;;;;;;;;;;;;;;;6202117;23;20137;-91
2022/06/11 05:49:52;;;;;;;;;;;;;;;;;;6206060;23;19951;-91
2022/06/11 05:52:26;;;;;;;;;;;;;;;;;;6216333;23;19973;-91
2022/06/11 05:54:52;;;;;;;;;;;;;;;;;;6214903;23;19955;-91
2022/06/11 05:57:18;;;;;;;;;;;;;;;;;;6203596;23;19919;-91
2022/06/11 05:59:47;;;;;;;;;;;;;;;;;;6203052;23;20421;-92
2022/06/11 06:02:16;;;;;;;;;;;;;;;;;;6203313;23;19926;-92
2022/06/11 06:04:42;;;;;;;;;;;;;;;;;;6203553;23;20061;-92
2022/06/11 06:07:08;;;;;;;;;;;;;;;;;;6179381;23;20032;-92
2022/06/11 06:09:34;;;;;;;;;;;;;;;;;;6177026;23;20312;-90
2022/06/11 06:12:03;;;;;;;;;;;;;;;;;;6179524;23;19920;-92
2022/06/11 06:14:29;;;;;;;;;;;;;;;;;;6203932;23;19958;-92
2022/06/11 06:17:08;;;;;;;;;;;;;;;;;;6207553;23;19981;-92
2022/06/11 06:19:34;;;;;;;;;;;;;;;;;;6204074;23;19969;-90
2022/06/11 06:22:04;;;;;;;;;;;;;;;;;;6181000;23;19935;-92
2022/06/11 06:24:38;;;;;;;;;;;;;;;;;;6180070;23;19994;-92
2022/06/11 06:27:12;;;;;;;;;;;;;;;;;;6156931;23;19969;-91
2022/06/11 06:29:48;;;;;;;;;;;;;;;;;;;;;
2022/06/11 06:32:14;;;;;;;;;;;;;;;;;;6220058;23;19964;-90
2022/06/11 06:34:42;;;;;;;;;;;;;;;;;;6212427;23;20336;-92
2022/06/11 06:37:11;;;;;;;;;;;;;;;;;;6216400;23;19969;-92
2022/06/11 06:39:37;;;;;;;;;;;;;;;;;;6215963;22;19920;-91
2022/06/11 06:42:05;;;;;;;;;;;;;;;;;;6223578;22;20302;-91
2022/06/11 06:44:35;;;;;;;;;;;;;;;;;;6244549;22;19919;-90
2022/06/11 06:47:04;;;;;;;;;;;;;;;;;;6238365;22;19926;-92
2022/06/11 06:49:35;;;;;;;;;;;;;;;;;;6214124;22;19957;-91
2022/06/11 06:52:01;;;;;;;;;;;;;;;;;;6211806;22;19965;-90
2022/06/11 06:54:27;;;;;;;;;;;;;;;;;;6236636;22;20563;-91
2022/06/11 06:56:59;;;;;;;;;;;;;;;;;;6238009;22;19919;-92
2022/06/11 06:59:28;;;;;;;;;;;;;;;;;;6213920;22;20285;-92
2022/06/11 07:01:57;;;;;;;;;;;;;;;;;;6215110;22;19923;-92
2022/06/11 07:04:23;;;;;;;;;;;;;;;;;;6212407;22;19919;-92
2022/06/11 07:07:11;;;;;;;;;;;;;;;;;;6237451;22;19919;-92
2022/06/11 07:09:40;;;;;;;;;;;;;;;;;;6212801;22;19984;-93
2022/06/11 07:12:06;;;;;;;;;;;;;;;;;;6211631;22;19919;-91
2022/06/11 07:14:32;;;;;;;;;;;;;;;;;;6238878;22;19919;-92
2022/06/11 07:17:05;;;;;;;;;;;;;;;;;;6215237;22;19923;-92
2022/06/11 07:19:32;;;;;;;;;;;;;;;;;;6214472;22;19919;-91
2022/06/11 07:21:58;;;;;;;;;;;;;;;;;;6214111;22;20328;-90
2022/06/11 07:24:27;;;;;;;;;;;;;;;;;;6214293;22;20255;-90
2022/06/11 07:26:53;;;;;;;;;;;;;;;;;;6213670;22;19924;-90
2022/06/11 07:29:25;;;;;;;;;;;;;;;;;;6212123;22;19915;-89
2022/06/11 07:31:53;;;;;;;;;;;;;;;;;;6231772;22;19919;-91
2022/06/11 07:34:35;;;;;;;;;;;;;;;;;;6207551;22;19919;-91
2022/06/11 07:39:50;;;;;;;;;;;;;;;;;;6236197;22;19916;-92
2022/06/11 07:42:34;;;;;;;;;;;;;;;;;;6211498;22;20258;-92
2022/06/11 07:45:00;;;;;;;;;;;;;;;;;;6212002;22;19966;-92
2022/06/11 07:50:11;;;;;;;;;;;;;;;;;;6240786;22;20326;-91
2022/06/11 07:52:43;;;;;;;;;;;;;;;;;;6212948;22;19919;-93
2022/06/11 07:55:09;;;;;;;;;;;;;;;;;;6215217;22;19944;-91
2022/06/11 07:57:35;;;;;;;;;;;;;;;;;;6237522;22;20247;-91
2022/06/11 08:00:04;;;;;;;;;;;;;;;;;;6213482;22;19955;-91
2022/06/11 08:02:30;;;;;;;;;;;;;;;;;;6210079;22;19961;-91
2022/06/11 08:05:01;;;;;;;;;;;;;;;;;;6212990;22;19916;-92
2022/06/11 08:07:30;;;;;;;;;;;;;;;;;;6235447;22;19926;-91
2022/06/11 08:09:59;;;;;;;;;;;;;;;;;;6236988;22;20246;-91
2022/06/11 08:12:28;;;;;;;;;;;;;;;;;;6236359;22;20411;-92
2022/06/11 08:15:09;;;;;;;;;;;;;;;;;;6211039;22;20315;-92
2022/06/11 08:17:40;;;;;;;;;;;;;;;;;;6209878;22;19919;-92
2022/06/11 08:20:09;;;;;;;;;;;;;;;;;;6237654;22;19926;-92
2022/06/11 08:22:38;;;;;;;;;;;;;;;;;;6235786;22;19927;-91
2022/06/11 08:25:04;;;;;;;;;;;;;;;;;;6237468;22;19923;-92
2022/06/11 08:27:33;;;;;;;;;;;;;;;;;;6210021;22;19915;-93
2022/06/11 08:30:14;;;;;;;;;;;;;;;;;;6213401;22;19961;-91
2022/06/11 08:32:40;;;;;;;;;;;;;;;;;;6209264;22;19919;-91
2022/06/11 08:35:12;;;;;;;;;;;;;;;;;;6211638;22;19934;-93
2022/06/11 08:37:43;;;;;;;;;;;;;;;;;;6209262;22;19937;-94
2022/06/11 08:40:19;;;;;;;;;;;;;;;;;;;;;
2022/06/11 08:42:48;;;;;;;;;;;;;;;;;;6235007;22;19922;-91
2022/06/11 08:45:14;;;;;;;;;;;;;;;;;;6212690;22;19951;-91
2022/06/11 08:47:43;;;;;;;;;;;;;;;;;;6235816;22;19949;-92
2022/06/11 08:50:12;;;;;;;;;;;;;;;;;;6236405;22;19998;-93
2022/06/11 08:52:38;;;;;;;;;;;;;;;;;;6209398;22;19922;-90
2022/06/11 08:55:04;;;;;;;;;;;;;;;;;;6213355;22;20298;-91
2022/06/11 08:57:30;;;;;;;;;;;;;;;;;;6215074;22;19915;-89
2022/06/11 08:59:56;;;;;;;;;;;;;;;;;;6214375;22;19942;-90
2022/06/11 09:02:22;;;;;;;;;;;;;;;;;;6240349;22;19926;-90
2022/06/11 09:04:48;;;;;;;;;;;;;;;;;;6236883;22;20418;-89
2022/06/11 09:07:14;;;;;;;;;;;;;;;;;;6216251;22;19972;-89
2022/06/11 09:09:40;;;;;;;;;;;;;;;;;;6214896;22;19985;-90
2022/06/11 09:12:06;;;;;;;;;;;;;;;;;;6238405;22;19922;-89
2022/06/11 09:14:32;;;;;;;;;;;;;;;;;;6211703;22;19919;-89
2022/06/11 09:16:58;;;;;;;;;;;;;;;;;;6214595;22;19915;-89
2022/06/11 09:19:29;;;;;;;;;;;;;;;;;;6216035;22;19977;-89
2022/06/11 09:21:55;;;;;;;;;;;;;;;;;;6215428;22;20381;-90
2022/06/11 09:24:21;;;;;;;;;;;;;;;;;;6217685;22;19986;-91
2022/06/11 09:26:48;;;;;;;;;;;;;;;;;;6214970;22;19919;-89
2022/06/11 09:29:14;;;;;;;;;;;;;;;;;;6214472;22;20143;-89
2022/06/11 09:31:40;;;;;;;;;;;;;;;;;;6238443;22;19946;-90
2022/06/11 09:34:08;;;;;;;;;;;;;;;;;;6242705;22;19919;-89
2022/06/11 09:36:43;;;;;;;;;;;;;;;;;;6223843;22;19929;-89
2022/06/11 09:39:09;;;;;;;;;;;;;;;;;;6223198;22;20291;-90
2022/06/11 09:41:41;;;;;;;;;;;;;;;;;;6211826;22;19923;-88
2022/06/11 09:44:09;;;;;;;;;;;;;;;;;;6212021;22;19916;-89
2022/06/11 09:46:35;;;;;;;;;;;;;;;;;;6210599;22;19925;-89
2022/06/11 09:49:04;;;;;;;;;;;;;;;;;;6211926;22;19938;-90
2022/06/11 09:51:30;;;;;;;;;;;;;;;;;;6208007;22;19994;-90
2022/06/11 09:53:56;;;;;;;;;;;;;;;;;;6212261;22;20406;-90
2022/06/11 09:56:23;;;;;;;;;;;;;;;;;;6238698;22;20025;-89
2022/06/11 09:58:51;;;;;;;;;;;;;;;;;;6237706;22;19957;-90
2022/06/11 10:01:17;;;;;;;;;;;;;;;;;;6214113;22;20407;-90
2022/06/11 10:03:43;;;;;;;;;;;;;;;;;;6211699;22;19919;-89
2022/06/11 10:06:09;;;;;;;;;;;;;;;;;;6214434;22;20045;-88
2022/06/11 10:08:36;;;;;;;;;;;;;;;;;;6212277;22;20806;-90
2022/06/11 10:11:04;;;;;;;;;;;;;;;;;;6211839;22;20225;-88
2022/06/11 10:13:33;;;;;;;;;;;;;;;;;;6206634;22;19919;-88
2022/06/11 10:16:02;;;;;;;;;;;;;;;;;;6205942;22;19919;-90
2022/06/11 10:18:28;;;;;;;;;;;;;;;;;;6207281;22;19977;-89
2022/06/11 10:20:56;;;;;;;;;;;;;;;;;;6207941;22;19923;-90
2022/06/11 10:23:25;;;;;;;;;;;;;;;;;;6233554;22;19990;-90
2022/06/11 10:25:54;;;;;;;;;;;;;;;;;;6215715;22;19922;-93
2022/06/11 10:28:39;;;;;;;;;;;;;;;;;;6239993;22;19915;-93
2022/06/11 10:31:11;;;;;;;;;;;;;;;;;;6212917;22;19977;-93
2022/06/11 10:33:40;;;;;;;;;;;;;;;;;;6216956;22;19919;-95
2022/06/11 10:36:07;;;;;;;;;;;;;;;;;;6215591;22;19921;-92
2022/06/11 10:38:33;;;;;;;;;;;;;;;;;;6210442;22;19926;-91
2022/06/11 10:40:59;;;;;;;;;;;;;;;;;;6212078;22;19923;-90
2022/06/11 10:43:25;;;;;;;;;;;;;;;;;;6212144;22;19986;-93
2022/06/11 10:45:53;;;;;;;;;;;;;;;;;;6211521;22;19925;-92
2022/06/11 10:48:22;;;;;;;;;;;;;;;;;;6211959;22;20002;-93
2022/06/11 10:50:48;;;;;;;;;;;;;;;;;;6211904;22;20005;-92
2022/06/11 10:53:14;;;;;;;;;;;;;;;;;;6219755;22;20340;-93
2022/06/11 10:55:40;;;;;;;;;;;;;;;;;;6217286;22;19919;-92
2022/06/11 10:58:06;;;;;;;;;;;;;;;;;;6221334;22;19990;-94
2022/06/11 11:00:41;;;;;;;;;;;;;;;;;;6220183;22;20018;-93
2022/06/11 11:03:09;;;;;;;;;;;;;;;;;;6221125;22;19990;-94
2022/06/11 11:05:35;;;;;;;;;;;;;;;;;;6221915;22;19986;-91
2022/06/11 11:08:02;;;;;;;;;;;;;;;;;;6221889;22;19947;-95
2022/06/11 11:10:28;;;;;;;;;;;;;;;;;;6219772;22;20010;-93
2022/06/11 11:12:55;;;;;;;;;;;;;;;;;;6214897;22;19924;-92
2022/06/11 11:15:38;;;;;;;;;;;;;;;;;;6217443;22;19969;-93
2022/06/11 11:18:15;;;;;;;;;;;;;;;;;;6218054;22;20248;-92
2022/06/11 11:20:41;;;;;;;;;;;;;;;;;;6217388;22;19919;-90
2022/06/11 11:23:09;;;;;;;;;;;;;;;;;;6216432;22;19915;-91
2022/06/11 11:25:35;;;;;;;;;;;;;;;;;;6240505;22;19926;-91
2022/06/11 11:28:04;;;;;;;;;;;;;;;;;;6216948;22;19919;-91
2022/06/11 11:30:46;;;;;;;;;;;;;;;;;;6211664;22;19942;-92
2022/06/11 11:33:21;;;;;;;;;;;;;;;;;;6215464;22;20018;-94
2022/06/11 11:35:56;;;;;;;;;;;;;;;;;;6216933;22;19986;-94
2022/06/11 11:38:30;;;;;;;;;;;;;;;;;;6214924;22;19919;-96
2022/06/11 11:40:58;;;;;;;;;;;;;;;;;;6211737;22;19923;-93
2022/06/11 11:43:24;;;;;;;;;;;;;;;;;;6236634;22;19973;-95
2022/06/11 11:45:55;;;;;;;;;;;;;;;;;;6213255;22;19964;-92
2022/06/11 11:48:24;;;;;;;;;;;;;;;;;;6238808;22;19926;-93
2022/06/11 11:50:55;;;;;;;;;;;;;;;;;;6214132;22;19928;-95
2022/06/11 11:53:21;;;;;;;;;;;;;;;;;;6216410;22;19919;-94
2022/06/11 11:55:48;;;;;;;;;;;;;;;;;;6212666;22;19926;-92
2022/06/11 11:58:14;;;;;;;;;;;;;;;;;;6220427;22;19919;-93
2022/06/11 12:00:43;;;;;;;;;;;;;;;;;;6214253;22;20243;-92
2022/06/11 12:03:09;;;;;;;;;;;;;;;;;;6236662;22;19919;-93
2022/06/11 12:05:40;;;;;;;;;;;;;;;;;;6234048;22;19983;-93
2022/06/11 12:08:06;;;;;;;;;;;;;;;;;;6216272;22;20324;-93
2022/06/11 12:10:32;;;;;;;;;;;;;;;;;;6214373;22;19946;-92
2022/06/11 12:12:58;;;;;;;;;;;;;;;;;;6216917;22;20350;-94
2022/06/11 12:15:26;;;;;;;;;;;;;;;;;;6223180;22;19923;-93
2022/06/11 12:17:52;;;;;;;;;;;;;;;;;;6241671;22;19919;-93
2022/06/11 12:20:18;;;;;;;;;;;;;;;;;;6218997;22;20328;-93
2022/06/11 12:22:44;;;;;;;;;;;;;;;;;;6217289;22;20220;-92
2022/06/11 12:25:13;;;;;;;;;;;;;;;;;;6243831;22;19935;-94
2022/06/11 12:27:45;;;;;;;;;;;;;;;;;;6215377;22;19922;-92
2022/06/11 12:30:11;;;;;;;;;;;;;;;;;;6246451;22;19923;-94
2022/06/11 12:32:46;;;;;;;;;;;;;;;;;;6242165;22;19919;-94
2022/06/11 12:35:21;;;;;;;;;;;;;;;;;;6222298;22;19959;-94
2022/06/11 12:37:47;;;;;;;;;;;;;;;;;;6218053;22;19915;-93
2022/06/11 12:40:13;;;;;;;;;;;;;;;;;;6214500;22;19923;-94
2022/06/11 12:42:42;;;;;;;;;;;;;;;;;;6216880;22;19919;-95
2022/06/11 12:45:19;;;;;;;;;;;;;;;;;;6218861;22;19986;-94
2022/06/11 12:47:46;;;;;;;;;;;;;;;;;;6212017;22;19942;-93
2022/06/11 12:50:15;;;;;;;;;;;;;;;;;;6241830;22;19930;-95
2022/06/11 12:52:41;;;;;;;;;;;;;;;;;;6213040;22;20324;-96
2022/06/11 12:55:12;;;;;;;;;;;;;;;;;;6217562;22;19964;-95
2022/06/11 12:57:40;;;;;;;;;;;;;;;;;;6213558;22;19923;-93
2022/06/11 13:00:14;;;;;;;;;;;;;;;;;;6214829;22;19915;-94
2022/06/11 13:02:46;;;;;;;;;;;;;;;;;;6211200;22;19945;-94
2022/06/11 13:05:15;;;;;;;;;;;;;;;;;;6236791;22;19926;-93
2022/06/11 13:07:46;;;;;;;;;;;;;;;;;;6214947;22;19942;-94
2022/06/11 13:10:13;;;;;;;;;;;;;;;;;;6241174;22;19946;-94
2022/06/11 13:12:40;;;;;;;;;;;;;;;;;;6213104;22;20331;-93
2022/06/11 13:15:06;;;;;;;;;;;;;;;;;;6215376;22;19919;-92
2022/06/11 13:17:35;;;;;;;;;;;;;;;;;;6213900;22;19947;-94
2022/06/11 13:20:07;;;;;;;;;;;;;;;;;;6215868;22;19926;-93
2022/06/11 13:22:36;;;;;;;;;;;;;;;;;;6215156;22;19915;-94
2022/06/11 13:25:02;;;;;;;;;;;;;;;;;;6217024;22;19919;-93
2022/06/11 13:27:31;;;;;;;;;;;;;;;;;;6234728;22;19949;-94
2022/06/11 13:29:57;;;;;;;;;;;;;;;;;;6240009;22;19930;-93
2022/06/11 13:32:28;;;;;;;;;;;;;;;;;;6240748;22;19979;-91
2022/06/11 13:35:00;;;;;;;;;;;;;;;;;;6233541;22;19930;-93
2022/06/11 13:37:29;;;;;;;;;;;;;;;;;;6239754;22;19953;-94
2022/06/11 13:39:58;;;;;;;;;;;;;;;;;;6235784;22;19990;-96
2022/06/11 13:42:34;;;;;;;;;;;;;;;;;;6219412;23;19972;-95
2022/06/11 13:45:00;;;;;;;;;;;;;;;;;;6190673;23;19962;-95
2022/06/11 13:47:26;;;;;;;;;;;;;;;;;;6185702;23;19915;-95
2022/06/11 13:49:53;;;;;;;;;;;;;;;;;;6187995;23;19927;-94
2022/06/11 13:55:10;;;;;;;;;;;;;;;;;;6183774;23;19930;-95
2022/06/11 13:55:13;;;;;;;;;;;;;;;;;;6208730;23;19919;-96
2022/06/11 13:57:45;;;;;;;;;;;;;;;;;;6182116;23;19959;-95
2022/06/11 14:00:32;;;;;;;;;;;;;;;;;;6183809;23;19915;-94
2022/06/11 14:02:57;;;;;;;;;;;;;;;;;;6195110;23;19915;-95
2022/06/11 14:05:45;;;;;;;;;;;;;;;;;;6206085;23;19926;-93
2022/06/11 14:08:23;;;;;;;;;;;;;;;;;;6205522;23;20081;-93
2022/06/11 14:11:16;;;;;;;;;;;;;;;;;;6170669;23;19920;-93
2022/06/11 14:14:11;;;;;;;;;;;;;;;;;;6153969;23;20048;-96
2022/06/11 14:16:51;;;;;;;;;;;;;;;;;;6142720;23;19946;-93
2022/06/11 14:19:20;;;;;;;;;;;;;;;;;;6119580;23;19920;-96
2022/06/11 14:21:47;;;;;;;;;;;;;;;;;;6120291;23;19988;-96
2022/06/11 14:24:13;;;;;;;;;;;;;;;;;;6121610;23;20380;-96
2022/06/11 14:26:41;;;;;;;;;;;;;;;;;;6117925;23;19972;-95
2022/06/11 14:29:10;;;;;;;;;;;;;;;;;;6123707;23;19951;-96
2022/06/11 14:31:36;;;;;;;;;;;;;;;;;;6117660;23;19924;-95
2022/06/11 14:34:02;;;;;;;;;;;;;;;;;;6120757;23;19924;-94
2022/06/11 14:36:28;;;;;;;;;;;;;;;;;;6126414;23;19916;-95
2022/06/11 14:38:54;;;;;;;;;;;;;;;;;;6138097;23;19925;-95
2022/06/11 14:41:33;;;;;;;;;;;;;;;;;;6154474;23;20007;-93
2022/06/11 14:44:01;;;;;;;;;;;;;;;;;;6208630;23;20367;-94
2022/06/11 14:46:27;;;;;;;;;;;;;;;;;;6207026;23;19920;-93
2022/06/11 14:48:53;;;;;;;;;;;;;;;;;;6206096;23;20321;-93
2022/06/11 14:51:19;;;;;;;;;;;;;;;;;;6231871;23;19985;-93
2022/06/11 14:53:48;;;;;;;;;;;;;;;;;;6206410;23;19923;-93
2022/06/11 14:56:14;;;;;;;;;;;;;;;;;;6209801;23;19930;-93
2022/06/11 14:58:43;;;;;;;;;;;;;;;;;;6208140;23;20286;-92
2022/06/11 15:01:09;;;;;;;;;;;;;;;;;;6209319;23;19919;-92
2022/06/11 15:03:36;;;;;;;;;;;;;;;;;;6207711;23;19919;-93
2022/06/11 15:06:03;;;;;;;;;;;;;;;;;;6212420;23;19920;-94
2022/06/11 15:08:32;;;;;;;;;;;;;;;;;;6183957;23;19954;-93
2022/06/11 15:11:03;;;;;;;;;;;;;;;;;;6209074;23;19981;-93
2022/06/11 15:13:29;;;;;;;;;;;;;;;;;;6181606;23;19934;-91
2022/06/11 15:15:55;;;;;;;;;;;;;;;;;;6234931;23;19919;-93
2022/06/11 15:18:21;;;;;;;;;;;;;;;;;;6186687;23;19950;-93
2022/06/11 15:20:47;;;;;;;;;;;;;;;;;;6210369;23;20354;-92
2022/06/11 15:23:13;;;;;;;;;;;;;;;;;;6209420;23;19920;-92
2022/06/11 15:25:39;;;;;;;;;;;;;;;;;;6205581;23;20265;-92
2022/06/11 15:28:05;;;;;;;;;;;;;;;;;;6205384;23;19926;-93
2022/06/11 15:30:34;;;;;;;;;;;;;;;;;;6174698;23;19967;-93
2022/06/11 15:33:00;;;;;;;;;;;;;;;;;;6181054;23;20646;-94
2022/06/11 15:35:26;;;;;;;;;;;;;;;;;;6203983;23;19987;-94
2022/06/11 15:38:01;;;;;;;;;;;;;;;;;;6205474;23;20021;-93
2022/06/11 15:40:27;;;;;;;;;;;;;;;;;;6201303;22;20240;-93
2022/06/11 15:42:53;;;;;;;;;;;;;;;;;;6207470;22;19931;-93
2022/06/11 15:45:19;;;;;;;;;;;;;;;;;;6207629;22;19919;-93
2022/06/11 15:47:48;;;;;;;;;;;;;;;;;;6208508;22;20658;-94
2022/06/11 15:50:14;;;;;;;;;;;;;;;;;;6209561;22;19919;-94
2022/06/11 15:52:40;;;;;;;;;;;;;;;;;;6209606;22;20252;-92
2022/06/11 15:55:13;;;;;;;;;;;;;;;;;;6235230;22;19919;-93
2022/06/11 15:57:42;;;;;;;;;;;;;;;;;;6205040;22;19919;-94
2022/06/11 16:00:08;;;;;;;;;;;;;;;;;;6209646;22;20342;-92
2022/06/11 16:02:39;;;;;;;;;;;;;;;;;;6209011;22;19919;-93
2022/06/11 16:05:05;;;;;;;;;;;;;;;;;;6209471;22;19996;-93
2022/06/11 16:07:31;;;;;;;;;;;;;;;;;;6207367;22;20232;-91
2022/06/11 16:09:57;;;;;;;;;;;;;;;;;;6235158;22;19934;-91
2022/06/11 16:12:29;;;;;;;;;;;;;;;;;;6211949;22;19923;-92
2022/06/11 16:14:56;;;;;;;;;;;;;;;;;;6208952;22;20335;-92
2022/06/11 16:17:23;;;;;;;;;;;;;;;;;;6234131;22;19915;-91
2022/06/11 16:19:49;;;;;;;;;;;;;;;;;;6207449;22;19919;-93
2022/06/11 16:22:15;;;;;;;;;;;;;;;;;;6236861;22;19923;-93
2022/06/11 16:24:43;;;;;;;;;;;;;;;;;;6208054;22;19919;-91
2022/06/11 16:27:09;;;;;;;;;;;;;;;;;;6214006;22;20297;-92
2022/06/11 16:29:35;;;;;;;;;;;;;;;;;;6209335;22;19972;-93
2022/06/11 16:32:01;;;;;;;;;;;;;;;;;;6212169;22;19923;-94
2022/06/11 16:37:29;;;;;;;;;;;;;;;;;;6115115;23;19920;-94
2022/06/11 16:39:58;;;;;;;;;;;;;;;;;;6190647;22;19969;-92
2022/06/11 16:45:09;;;;;;;;;;;;;;;;;;6205734;23;19919;-91
2022/06/11 16:47:35;;;;;;;;;;;;;;;;;;6204685;23;19969;-94
2022/06/11 16:58:19;;;;;;;;;;;;;;;;;;6233649;23;19994;-93
2022/06/11 17:00:45;;;;;;;;;;;;;;;;;;6205363;23;19919;-94
2022/06/11 17:03:11;;;;;;;;;;;;;;;;;;6208056;23;19957;-93
2022/06/11 17:05:39;;;;;;;;;;;;;;;;;;6206198;23;20234;-93
2022/06/11 17:08:26;;;;;;;;;;;;;;;;;;6231369;23;20029;-91
2022/06/11 17:10:54;;;;;;;;;;;;;;;;;;6208446;23;19916;-93
2022/06/11 17:13:20;;;;;;;;;;;;;;;;;;6232957;23;19954;-95
2022/06/11 17:15:46;;;;;;;;;;;;;;;;;;6206648;23;20366;-93
2022/06/11 17:18:12;;;;;;;;;;;;;;;;;;6207720;23;19951;-93
2022/06/11 17:20:46;;;;;;;;;;;;;;;;;;6204436;23;20328;-93